Main page
METAR-TAF:

METAR-TAF

Airports :

Hutchinson County Airport

Borger, Texas, United States

latitude: 35-41-42N, longitude: 101-23-42W, elevation: 3054 ft

Current weather observation

The report was made 10 minutes ago, at 14:51 UTC
Wind 9 mph from the South
Temperature 70°F
Humidity 64%
Pressure 30.13 in. Hg
Visibility: 10 miles
Scattered clouds at a height of 2400 ft

METAR: KBGD 211451Z AUTO 18008KT 10SM SCT024 21/14 A3013 RMK AO2 SLP171 T02060139 50012

Time: 10:01 (15:01 UTC)


TAF: missing

Weather observations and forecasts of more than 4000 airports (METAR and TAF reports).

The available stations are represented by yellow and red dots on the map.

Hover mouse over dot to see the name of the station.

Then click to see weather observations and forecasts.

To change the map : click on the green buttons with a black cross to zoom in, on the green button with a dash to zoom out, or on the green arrows for adjacent maps.


METAR-TAF: